Millwood, KY (42762)

7:56 AM CDT on July 05, 2015 (GMT -0500)
Eveleigh Road | | Change Station
CLOSE
Current Station
Personal Weather Station
Location: Leitchfield, KY
Elevation: 670 ft
Nearby Weather Stations

Elev 670 ft 37.58 °N, 86.34 °W | Updated 1 minute ago

Fog
Fog
70.3 °F
Feels Like 70.3 °F
N
0.0
Wind Variable Wind from NW
Gusts 1.6 mph

Today
High -- | Low -- °F
--% Chance of Precip.
Yesterday
High -- | Low -- °F
Precip. -- in
5:30 AM 8:09 PM
Waning Gibbous, 85% visible
Pressure 30.06 in
Visibility 5.0 miles
Clouds Overcast 700 ft
Dew Point 70 °F
Humidity 99%
Rainfall 0.00 in
Snow Depth Not available.
UV 1 out of 12
Pollen 1.00 out of 12
Air Quality Not available.
Flu Activity Not available.
METAR KBWG 051253Z AUTO 20006KT 5SM VCTS BR OVC007 22/21 A3008 RMK AO2 LTG DSNT E-S RAB27E40 TSE15B27E51 SLP179 P0000 T02220206

More Conditions Fewer Conditions

Pressure 30.06 in
Visibility 5.0 miles
Clouds Overcast 700 ft
Dew Point 70 °F
Humidity 99%
Rainfall 0.00 in
Snow Depth Not available.
UV 1 out of 12
Pollen 1.00 out of 12
Air Quality Not available.
Flu Activity Not available.
METAR KBWG 051253Z AUTO 20006KT 5SM VCTS BR OVC007 22/21 A3008 RMK AO2 LTG DSNT E-S RAB27E40 TSE15B27E51 SLP179 P0000 T02220206

More Conditions Fewer Conditions

10-Day Weather Forecast

×

Almanac

Astronomy

Jul. 05, 2015 Rise Set
Actual Time
Civil Twilight
Nautical Twilight
Astronomical Twilight
Moon
Length of Visible Light
Length of Day
Tomorrow will be .
, % of the Moon is Illuminated

Today's Extremes

State Highs State Lows

Community

WunderPhotos

Upload Photos

1,835,248 photos uploaded!

WunderBlogs® & News

Nearby

Air Quality

  Air Quality AQ Index Pollutant
Not available.

Snow Depth

Station Depth Elevation

Earthquake Activity

City Distance Mag. Time & Date
Minimum magnitude displayed is 2.5.

Coastal Water Temperatures

Place Temperature

Stations

Nearby Weather Stations

Station Location Temp. Windchill Dew Point Humidity Wind Precip. Elev Updated Type